Time;durP1;ratioP1;P1;durP2;ratioP2;P2;SDS_P1;SDS_P2;PMS_P1;PMS_P2;Temp;Humidity;BMP_temperature;BMP_pressure;BME280_temperature;BME280_humidity;BME280_pressure;Samples;Min_cycle;Max_cycle;Signal;HPM_P1;HPM_P2
2022/11/19 00:00:11;;;;;;;8.93;6.37;;;8.40;99.90;;;;;;10544757;27;20211;-77
2022/11/19 00:05:11;;;;;;;7.80;6.27;;;8.50;99.90;;;;;;10551007;27;20194;-77
2022/11/19 00:10:12;;;;;;;7.97;6.00;;;8.60;99.90;;;;;;10518166;28;20189;-78
2022/11/19 00:15:13;;;;;;;6.60;5.57;;;8.70;99.90;;;;;;10542924;27;20235;-79
2022/11/19 00:20:14;;;;;;;6.43;5.17;;;8.70;99.90;;;;;;10549606;27;20228;-78
2022/11/19 00:25:15;;;;;;;8.13;6.27;;;8.70;99.90;;;;;;10550529;27;20231;-77
2022/11/19 00:30:16;;;;;;;6.80;6.10;;;8.70;99.90;;;;;;10527039;28;20185;-78
2022/11/19 00:35:16;;;;;;;6.00;5.40;;;8.70;99.90;;;;;;10541754;27;20226;-78
2022/11/19 00:40:17;;;;;;;10.17;6.43;;;8.80;99.90;;;;;;10548221;27;20308;-77
2022/11/19 00:45:18;;;;;;;7.77;6.20;;;8.80;99.90;;;;;;10542280;27;20210;-78
2022/11/19 00:50:18;;;;;;;6.87;5.50;;;8.80;99.90;;;;;;10516888;28;20676;-78
2022/11/19 00:55:19;;;;;;;6.80;5.47;;;8.80;99.90;;;;;;10514537;28;20193;-78
2022/11/19 01:00:22;;;;;;;11.10;6.60;;;8.80;99.90;;;;;;10517091;28;20212;-77
2022/11/19 01:05:23;;;;;;;7.43;6.10;;;8.80;99.90;;;;;;10548463;27;20185;-77
2022/11/19 01:10:23;;;;;;;7.50;6.70;;;8.80;99.90;;;;;;10543388;27;20308;-79
2022/11/19 01:15:24;;;;;;;7.07;6.23;;;8.70;99.90;;;;;;10548761;27;20226;-79
2022/11/19 01:20:25;;;;;;;9.77;6.30;;;8.70;99.90;;;;;;10548397;27;20239;-78
2022/11/19 01:25:25;;;;;;;7.10;6.00;;;8.70;99.90;;;;;;10545459;27;20287;-78
2022/11/19 01:30:26;;;;;;;8.60;6.93;;;8.80;99.90;;;;;;10509048;28;20554;-78
2022/11/19 01:35:27;;;;;;;9.17;7.70;;;8.80;99.90;;;;;;10544631;27;20217;-78
2022/11/19 01:40:28;;;;;;;8.60;7.30;;;8.80;99.90;;;;;;10541920;27;20232;-78
2022/11/19 01:45:34;;;;;;;9.23;6.93;;;8.80;99.90;;;;;;10528022;28;20326;-78
2022/11/19 01:50:44;;;;;;;8.67;5.83;;;8.80;99.90;;;;;;10510786;28;20264;-80
2022/11/19 01:55:46;;;;;;;6.23;5.53;;;8.50;99.90;;;;;;10509494;28;20249;-78
2022/11/19 02:00:47;;;;;;;7.47;5.57;;;8.30;99.90;;;;;;10541536;27;20332;-75
2022/11/19 02:05:48;;;;;;;9.27;5.70;;;8.20;99.90;;;;;;10532357;28;20337;-74
2022/11/19 02:11:12;;;;;;;5.43;4.80;;;8.20;99.90;;;;;;10510065;28;20298;-75
2022/11/19 02:16:26;;;;;;;6.97;4.10;;;8.00;99.90;;;;;;10515021;28;20277;-77
2022/11/19 02:22:14;;;;;;;5.00;4.50;;;7.80;99.90;;;;;;10552392;27;20288;-77
2022/11/19 02:27:33;;;;;;;5.83;5.23;;;7.70;99.90;;;;;;10520834;28;20221;-78
2022/11/19 02:32:43;;;;;;;5.13;4.63;;;7.60;99.90;;;;;;10536910;28;20221;-78
2022/11/19 02:37:52;;;;;;;7.47;4.80;;;7.50;99.90;;;;;;10555347;27;20218;-75
2022/11/19 02:43:16;;;;;;;7.93;5.67;;;7.30;99.90;;;;;;10516531;28;20230;-77
2022/11/19 02:48:40;;;;;;;7.43;5.67;;;7.20;99.90;;;;;;10518343;28;20226;-77
2022/11/19 02:53:41;;;;;;;9.00;5.27;;;7.10;99.90;;;;;;10517021;28;20231;-77
2022/11/19 03:04:29;;;;;;;8.37;5.93;;;6.80;99.90;;;;;;10520592;28;20210;-78
2022/11/19 03:09:32;;;;;;;9.70;5.87;;;6.70;99.90;;;;;;10522308;28;20230;-78
2022/11/19 03:20:23;;;;;;;8.17;5.83;;;6.60;99.90;;;;;;10512694;28;20235;-79
2022/11/19 03:25:40;;;;;;;10.23;5.07;;;6.50;99.90;;;;;;10520339;28;22515;-77
2022/11/19 03:30:43;;;;;;;4.53;4.13;;;6.50;99.90;;;;;;10514755;28;20223;-77
2022/11/19 03:35:51;;;;;;;8.20;6.37;;;6.50;99.90;;;;;;10511225;28;20281;-76
2022/11/19 03:40:53;;;;;;;6.33;5.73;;;6.40;99.90;;;;;;10517798;28;20236;-78
2022/11/19 03:45:57;;;;;;;6.30;5.70;;;6.40;99.90;;;;;;10521144;28;20222;-73
2022/11/19 03:51:07;;;;;;;7.47;5.93;;;6.40;99.90;;;;;;10511602;28;20281;-72
2022/11/19 03:56:11;;;;;;;7.03;5.00;;;6.40;99.90;;;;;;10550586;27;20313;-72
2022/11/19 04:01:12;;;;;;;5.00;4.40;;;6.40;99.90;;;;;;10518163;28;20265;-80
2022/11/19 04:06:13;;;;;;;6.87;5.17;;;6.40;99.90;;;;;;10546018;27;20254;-78
2022/11/19 04:11:13;;;;;;;6.17;4.67;;;6.30;99.90;;;;;;10509935;28;20247;-78
2022/11/19 04:16:14;;;;;;;5.77;4.40;;;6.20;99.90;;;;;;10518082;28;20232;-77
2022/11/19 04:21:14;;;;;;;4.17;3.77;;;6.20;99.90;;;;;;10518058;28;20249;-77
2022/11/19 04:26:15;;;;;;;4.03;2.60;;;6.00;99.90;;;;;;10518520;28;20238;-77
2022/11/19 04:31:16;;;;;;;3.07;2.13;;;5.90;99.90;;;;;;10552843;27;20214;-75
2022/11/19 04:36:16;;;;;;;2.00;1.90;;;5.80;99.90;;;;;;10523359;28;20673;-75
2022/11/19 04:41:17;;;;;;;1.80;1.70;;;5.80;99.90;;;;;;10542303;27;20230;-75
2022/11/19 04:46:18;;;;;;;2.53;2.33;;;5.80;99.90;;;;;;10547217;27;20222;-76
2022/11/19 04:51:18;;;;;;;3.40;2.17;;;5.80;99.90;;;;;;10512443;28;20217;-76
2022/11/19 04:56:19;;;;;;;2.37;2.17;;;5.90;99.90;;;;;;10516871;28;20229;-75
2022/11/19 05:01:20;;;;;;;1.93;1.83;;;5.90;99.90;;;;;;10514032;28;20335;-76
2022/11/19 05:06:23;;;;;;;2.57;2.37;;;5.80;99.90;;;;;;10549130;27;20221;-76
2022/11/19 05:11:23;;;;;;;3.30;2.73;;;5.80;99.90;;;;;;10509841;28;20218;-76
2022/11/19 05:16:24;;;;;;;3.47;3.17;;;5.70;99.90;;;;;;10517636;28;20360;-79
2022/11/19 05:21:25;;;;;;;3.43;3.13;;;5.60;99.90;;;;;;10508973;28;20226;-78
2022/11/19 05:26:25;;;;;;;5.50;4.53;;;5.40;99.90;;;;;;10549971;27;20223;-79
2022/11/19 05:31:27;;;;;;;4.00;3.70;;;5.40;99.90;;;;;;10549351;27;20238;-78
2022/11/19 05:36:28;;;;;;;5.07;4.57;;;5.40;99.90;;;;;;10544672;27;20779;-73
2022/11/19 05:41:28;;;;;;;11.53;5.13;;;5.20;99.90;;;;;;10508970;28;20705;-72
2022/11/19 05:46:29;;;;;;;8.53;5.20;;;5.10;99.90;;;;;;10518069;28;20219;-76
2022/11/19 05:51:31;;;;;;;7.00;5.93;;;5.00;99.90;;;;;;10509378;28;20222;-79
2022/11/19 05:56:31;;;;;;;6.90;6.10;;;4.90;99.90;;;;;;10513318;28;20246;-79
2022/11/19 06:01:32;;;;;;;9.30;7.53;;;4.80;99.90;;;;;;10544183;27;20233;-79
2022/11/19 06:06:36;;;;;;;7.10;6.40;;;4.90;99.90;;;;;;10511722;28;20242;-79
2022/11/19 06:11:51;;;;;;;6.70;6.00;;;4.90;99.90;;;;;;10514093;28;20279;-79
2022/11/19 06:16:54;;;;;;;8.67;7.37;;;4.90;99.90;;;;;;10538535;28;20246;-71
2022/11/19 06:21:55;;;;;;;8.00;7.07;;;5.00;99.90;;;;;;10513909;28;20235;-77
2022/11/19 06:26:56;;;;;;;10.07;7.40;;;5.00;99.90;;;;;;10521039;28;20741;-77
2022/11/19 06:31:56;;;;;;;10.17;8.27;;;4.90;99.90;;;;;;10554856;27;20225;-74
2022/11/19 06:36:57;;;;;;;8.80;7.10;;;4.90;99.90;;;;;;10538774;28;20231;-72
2022/11/19 06:42:34;;;;;;;8.97;7.83;;;4.80;99.90;;;;;;10545553;27;20818;-74
2022/11/19 06:47:18;;;;;;;10.33;8.17;;;4.80;99.90;;;;;;10521139;28;20219;-74
2022/11/19 06:52:19;;;;;;;8.90;8.00;;;4.80;99.90;;;;;;10506195;28;20219;-73
2022/11/19 06:57:20;;;;;;;9.90;8.70;;;4.70;99.90;;;;;;10550308;28;20875;-80
2022/11/19 07:02:21;;;;;;;9.97;8.20;;;4.70;99.90;;;;;;10521669;28;20271;-80
2022/11/19 07:07:21;;;;;;;9.57;7.97;;;4.80;99.90;;;;;;10558634;27;20203;-83
2022/11/19 07:12:25;;;;;;;11.87;9.30;;;4.60;99.90;;;;;;10554673;27;20223;-80
2022/11/19 07:17:26;;;;;;;13.47;10.50;;;4.60;99.90;;;;;;10520160;28;20309;-80
2022/11/19 07:22:26;;;;;;;12.37;9.77;;;4.70;99.90;;;;;;10524735;28;20326;-77
2022/11/19 07:27:27;;;;;;;11.53;9.63;;;4.60;99.90;;;;;;10547279;27;20234;-76
2022/11/19 07:32:27;;;;;;;11.40;9.70;;;4.50;99.90;;;;;;10548434;27;20241;-73
2022/11/19 07:37:28;;;;;;;11.57;9.63;;;4.50;99.90;;;;;;10522269;28;20301;-74
2022/11/19 07:47:48;;;;;;;12.90;10.53;;;4.40;99.90;;;;;;10516267;28;20263;-72
2022/11/19 07:52:48;;;;;;;11.30;10.10;;;4.30;99.90;;;;;;10516299;28;20275;-75
2022/11/19 07:57:51;;;;;;;13.17;10.50;;;4.30;99.90;;;;;;10516151;28;20276;-74
2022/11/19 08:02:52;;;;;;;11.63;9.87;;;4.40;99.90;;;;;;10516118;28;20283;-75
2022/11/19 08:07:53;;;;;;;12.77;11.43;;;4.30;99.90;;;;;;10517011;28;20250;-73
2022/11/19 08:13:02;;;;;;;13.70;10.73;;;4.20;99.90;;;;;;10510402;28;20292;-69
2022/11/19 08:18:11;;;;;;;14.07;11.47;;;4.10;99.90;;;;;;10524260;28;20226;-69
2022/11/19 08:23:11;;;;;;;13.50;11.70;;;4.10;99.90;;;;;;10515292;28;20215;-72
2022/11/19 08:28:12;;;;;;;13.70;11.33;;;4.00;99.90;;;;;;10524099;28;20661;-71
2022/11/19 08:33:13;;;;;;;12.93;11.30;;;4.10;99.90;;;;;;10516678;28;20667;-70
2022/11/19 08:38:13;;;;;;;14.97;11.03;;;4.20;99.90;;;;;;10515782;28;20787;-69
2022/11/19 08:43:14;;;;;;;14.73;11.90;;;4.30;99.90;;;;;;10507360;28;20299;-70
2022/11/19 08:48:14;;;;;;;15.10;11.43;;;4.20;99.90;;;;;;10517820;28;20213;-71
2022/11/19 08:53:15;;;;;;;13.20;10.83;;;4.10;99.90;;;;;;10523523;28;20248;-72
2022/11/19 08:58:16;;;;;;;15.10;11.23;;;4.00;99.90;;;;;;10513558;28;20226;-71
2022/11/19 09:03:16;;;;;;;15.40;11.60;;;4.00;99.90;;;;;;10508086;28;20219;-70
2022/11/19 09:08:17;;;;;;;14.70;11.53;;;4.10;99.90;;;;;;10507965;28;20309;-69
2022/11/19 09:13:17;;;;;;;16.23;12.10;;;4.10;99.90;;;;;;10521361;28;20601;-71
2022/11/19 09:18:18;;;;;;;16.53;11.77;;;4.00;99.90;;;;;;10513245;28;20583;-69
2022/11/19 09:23:18;;;;;;;18.17;12.90;;;3.80;99.90;;;;;;10508193;28;20219;-70
2022/11/19 09:28:19;;;;;;;23.30;14.17;;;3.60;99.90;;;;;;10519894;28;20276;-70
2022/11/19 09:33:19;;;;;;;19.57;13.40;;;3.60;99.90;;;;;;10507593;28;20272;-69
2022/11/19 09:38:20;;;;;;;23.37;13.90;;;3.50;99.90;;;;;;10512749;28;20226;-69
2022/11/19 09:43:47;;;;;;;41.23;17.80;;;3.40;99.90;;;;;;10507331;28;20222;-69
2022/11/19 09:48:51;;;;;;;41.13;18.90;;;3.50;99.90;;;;;;10512811;28;20222;-69
2022/11/19 09:54:02;;;;;;;38.63;18.07;;;3.60;99.90;;;;;;10507145;28;20226;-69
2022/11/19 09:59:14;;;;;;;37.20;18.33;;;3.50;99.90;;;;;;10521397;28;20770;-70
2022/11/19 10:04:20;;;;;;;40.53;18.70;;;3.50;99.90;;;;;;10506104;28;20215;-69
2022/11/19 10:09:59;;;;;;;43.80;19.53;;;3.50;99.90;;;;;;10519287;28;20678;-69
2022/11/19 10:15:58;;;;;;;37.80;18.60;;;3.50;99.90;;;;;;10512161;28;20259;-68
2022/11/19 10:21:26;;;;;;;39.07;18.77;;;3.50;99.90;;;;;;10444147;28;20255;-70
2022/11/19 10:26:37;;;;;;;41.50;19.47;;;3.60;99.90;;;;;;10504480;28;20245;-69
2022/11/19 10:31:43;;;;;;;36.37;18.70;;;3.70;99.90;;;;;;10512214;28;20233;-69
2022/11/19 10:36:46;;;;;;;49.00;20.30;;;3.70;99.90;;;;;;10526082;28;20269;-69
2022/11/19 10:41:50;;;;;;;36.73;18.30;;;3.90;99.90;;;;;;10512566;28;20443;-69
2022/11/19 10:46:51;;;;;;;24.73;14.10;;;3.90;99.90;;;;;;10514939;28;20219;-70
2022/11/19 10:51:52;;;;;;;19.60;12.27;;;4.00;99.90;;;;;;10522547;28;20227;-70
2022/11/19 10:56:54;;;;;;;18.33;12.23;;;4.00;99.90;;;;;;10516566;28;20233;-69
2022/11/19 11:02:00;;;;;;;16.70;11.53;;;4.10;99.90;;;;;;10512915;28;20227;-70
2022/11/19 11:07:04;;;;;;;17.50;10.90;;;3.90;99.90;;;;;;10512356;28;20227;-70
2022/11/19 11:17:45;;;;;;;20.87;12.67;;;3.70;99.90;;;;;;10516737;28;20234;-69
2022/11/19 11:22:49;;;;;;;16.90;11.90;;;3.70;99.90;;;;;;10513758;28;20954;-69
2022/11/19 11:28:11;;;;;;;17.73;11.73;;;3.70;99.90;;;;;;10525803;28;20731;-73
2022/11/19 11:33:32;;;;;;;15.83;11.70;;;3.50;99.90;;;;;;10511273;28;20285;-73
2022/11/19 11:38:41;;;;;;;16.77;11.57;;;3.70;99.90;;;;;;10514808;28;20712;-72
2022/11/19 11:44:11;;;;;;;13.57;10.00;;;3.90;99.90;;;;;;10520593;28;20593;-71
2022/11/19 11:49:26;;;;;;;11.90;9.47;;;3.90;99.90;;;;;;10518714;28;20223;-74
2022/11/19 11:54:27;;;;;;;16.90;10.63;;;3.90;99.90;;;;;;10519073;28;20297;-71
2022/11/19 11:59:29;;;;;;;15.23;10.03;;;3.90;99.90;;;;;;10519069;28;20230;-71
2022/11/19 12:04:31;;;;;;;12.87;9.57;;;3.90;99.90;;;;;;10513870;28;20704;-71
2022/11/19 12:09:31;;;;;;;12.43;8.90;;;4.00;99.90;;;;;;10546506;27;20222;-71
2022/11/19 12:14:39;;;;;;;10.93;8.73;;;4.10;99.90;;;;;;10547137;27;20679;-71
2022/11/19 12:20:05;;;;;;;10.87;8.97;;;4.00;99.90;;;;;;10517844;28;20233;-71
2022/11/19 12:25:40;;;;;;;8.47;6.87;;;4.10;99.90;;;;;;10515468;28;20220;-72
2022/11/19 12:30:48;;;;;;;11.20;7.07;;;4.20;99.90;;;;;;10516264;28;20223;-72
2022/11/19 12:36:22;;;;;;;8.27;6.53;;;4.30;99.90;;;;;;10522231;28;20219;-73
2022/11/19 12:41:38;;;;;;;7.93;6.93;;;4.40;99.90;;;;;;10522687;28;20234;-70
2022/11/19 12:46:57;;;;;;;7.87;7.00;;;4.30;99.90;;;;;;10524309;28;20221;-72
2022/11/19 12:52:06;;;;;;;8.53;7.03;;;4.40;99.90;;;;;;10524103;28;20686;-71
2022/11/19 12:57:44;;;;;;;9.03;7.40;;;4.40;99.90;;;;;;10526391;28;20214;-69
2022/11/19 13:03:07;;;;;;;12.23;8.23;;;4.40;99.90;;;;;;10524760;28;20217;-72
2022/11/19 13:08:30;;;;;;;9.60;7.27;;;4.40;99.90;;;;;;10527387;28;20216;-72
2022/11/19 13:13:32;;;;;;;9.63;7.83;;;4.40;99.90;;;;;;10525673;28;20298;-71
2022/11/19 13:21:55;;;;;;;11.03;8.20;;;4.30;99.90;;;;;;10466803;28;20583;-72
2022/11/19 13:27:03;;;;;;;10.40;7.80;;;4.40;99.90;;;;;;10439730;28;20260;-68
2022/11/19 13:32:37;;;;;;;11.57;8.13;;;4.30;99.90;;;;;;10447524;28;20226;-71
2022/11/19 13:37:45;;;;;;;13.00;9.57;;;4.20;99.90;;;;;;10444126;28;20211;-70
2022/11/19 13:48:17;;;;;;;13.07;9.23;;;4.20;99.90;;;;;;10432527;28;20224;-70
2022/11/19 13:53:21;;;;;;;13.17;8.77;;;4.20;99.90;;;;;;10415337;28;20212;-69
2022/11/19 13:58:33;;;;;;;10.87;8.63;;;4.20;99.90;;;;;;10427849;28;20273;-68
2022/11/19 14:04:09;;;;;;;10.57;8.40;;;4.10;99.90;;;;;;10425114;28;20763;-68
2022/11/19 14:09:15;;;;;;;11.13;8.97;;;4.10;99.90;;;;;;10413268;28;20236;-69
2022/11/19 14:31:00;;;;;;;12.10;9.60;;;4.00;99.90;;;;;;10408812;28;20232;-69
2022/11/19 14:36:10;;;;;;;11.93;10.00;;;4.10;99.90;;;;;;10392745;28;20251;-70
2022/11/19 14:44:08;;;;;;;13.37;10.23;;;4.10;99.90;;;;;;10480474;27;20954;-70
2022/11/19 14:49:30;;;;;;;11.30;9.80;;;4.00;99.90;;;;;;10479910;28;20222;-70
2022/11/19 14:54:42;;;;;;;11.60;9.67;;;4.00;99.90;;;;;;10460399;28;20280;-73
2022/11/19 14:59:48;;;;;;;14.10;9.70;;;4.10;99.90;;;;;;10462180;28;20224;-70
2022/11/19 15:04:57;;;;;;;11.17;9.87;;;4.00;99.90;;;;;;10449019;28;20220;-73
2022/11/19 15:10:09;;;;;;;13.83;10.93;;;4.00;99.90;;;;;;10460466;28;20230;-72
2022/11/19 15:15:19;;;;;;;14.00;10.57;;;3.90;99.90;;;;;;10456251;28;20697;-70
2022/11/19 15:20:38;;;;;;;15.17;10.97;;;3.90;99.90;;;;;;10467095;28;20223;-73
2022/11/19 15:26:07;;;;;;;14.80;10.53;;;3.90;99.90;;;;;;10491001;28;20219;-69
2022/11/19 15:31:23;;;;;;;17.97;11.53;;;3.90;99.90;;;;;;10465287;28;20318;-77
2022/11/19 15:36:44;;;;;;;15.83;11.90;;;3.90;99.90;;;;;;10463344;28;20251;-76
2022/11/19 15:42:04;;;;;;;15.97;12.80;;;3.80;99.90;;;;;;10471258;28;20246;-73
2022/11/19 15:47:16;;;;;;;18.20;12.87;;;3.80;99.90;;;;;;10456275;28;20238;-76
2022/11/19 15:52:30;;;;;;;15.77;12.93;;;3.60;99.90;;;;;;10449904;28;20216;-76
2022/11/19 15:57:31;;;;;;;20.10;13.97;;;3.60;99.90;;;;;;10427779;28;20240;-70
2022/11/19 16:02:37;;;;;;;17.13;13.23;;;3.60;99.90;;;;;;10429517;28;20314;-70
2022/11/19 16:07:37;;;;;;;21.03;13.37;;;3.50;99.90;;;;;;10427569;28;20226;-70
2022/11/19 16:18:17;;;;;;;20.83;14.57;;;3.50;99.90;;;;;;10431653;28;20239;-70
2022/11/19 16:23:22;;;;;;;18.60;14.23;;;3.50;99.90;;;;;;10439388;28;20227;-68
2022/11/19 16:28:29;;;;;;;17.23;13.63;;;3.50;99.90;;;;;;10435477;28;20691;-70
2022/11/19 16:33:32;;;;;;;17.60;13.63;;;3.60;99.90;;;;;;10435147;28;20687;-70
2022/11/19 16:38:33;;;;;;;18.53;14.73;;;3.60;99.90;;;;;;10429812;28;20311;-69
2022/11/19 16:43:35;;;;;;;19.07;13.80;;;3.60;99.90;;;;;;10431362;28;20220;-70
2022/11/19 16:48:51;;;;;;;19.50;13.83;;;3.50;99.90;;;;;;10433828;28;20228;-70
2022/11/19 16:53:52;;;;;;;18.40;14.70;;;3.50;99.90;;;;;;10425789;28;20278;-70
2022/11/19 16:59:00;;;;;;;21.63;16.40;;;3.50;99.90;;;;;;10426463;28;20217;-71
2022/11/19 17:04:12;;;;;;;20.27;15.20;;;3.50;99.90;;;;;;10433980;28;20227;-71
2022/11/19 17:09:43;;;;;;;18.80;14.67;;;3.60;99.90;;;;;;10431947;28;20228;-71
2022/11/19 17:14:46;;;;;;;19.63;15.20;;;3.60;99.90;;;;;;10436619;28;20219;-70
2022/11/19 17:19:46;;;;;;;24.53;15.97;;;3.50;99.90;;;;;;10463909;28;20366;-76
2022/11/19 17:24:48;;;;;;;20.97;15.70;;;3.50;99.90;;;;;;10433112;28;20323;-80
2022/11/19 17:29:48;;;;;;;19.43;15.10;;;3.50;99.90;;;;;;10425279;28;20354;-78
2022/11/19 17:34:54;;;;;;;21.17;15.43;;;3.40;99.90;;;;;;10431501;28;20823;-78
2022/11/19 17:39:54;;;;;;;21.40;15.57;;;3.30;99.90;;;;;;10435512;28;20228;-80
2022/11/19 17:44:55;;;;;;;21.80;15.93;;;3.30;99.90;;;;;;10425252;28;20212;-79
2022/11/19 17:49:55;;;;;;;26.10;17.27;;;3.30;99.90;;;;;;10433147;28;20540;-77
2022/11/19 17:55:00;;;;;;;19.90;15.70;;;3.30;99.90;;;;;;10424143;28;20224;-78
2022/11/19 18:00:01;;;;;;;21.53;16.33;;;3.30;99.90;;;;;;10437449;28;20224;-78
2022/11/19 18:05:11;;;;;;;21.93;16.60;;;3.30;99.90;;;;;;10430514;28;20220;-78
2022/11/19 18:10:12;;;;;;;24.60;17.53;;;3.30;99.90;;;;;;10424010;28;20250;-77
2022/11/19 18:15:16;;;;;;;22.33;16.27;;;3.40;99.90;;;;;;10423702;28;20195;-76
2022/11/19 18:20:16;;;;;;;20.20;15.67;;;3.40;99.90;;;;;;10426601;28;20204;-80
2022/11/19 18:25:20;;;;;;;21.57;15.57;;;3.40;99.90;;;;;;10428229;28;20654;-76
2022/11/19 18:30:21;;;;;;;20.60;16.50;;;3.40;99.90;;;;;;10433732;28;20189;-78
2022/11/19 18:35:22;;;;;;;24.00;16.53;;;3.40;99.90;;;;;;10423745;28;20188;-78
2022/11/19 18:40:22;;;;;;;23.93;17.53;;;3.40;99.90;;;;;;10425673;28;20219;-75
2022/11/19 18:45:23;;;;;;;25.20;18.07;;;3.40;99.90;;;;;;10434542;28;20186;-78
2022/11/19 18:50:24;;;;;;;21.40;16.57;;;3.40;99.90;;;;;;10423380;28;20215;-77
2022/11/19 18:55:24;;;;;;;24.13;16.87;;;3.40;99.90;;;;;;10436671;28;20223;-79
2022/11/19 19:00:25;;;;;;;22.00;16.97;;;3.30;99.90;;;;;;10424673;28;20236;-79
2022/11/19 19:05:25;;;;;;;23.10;17.03;;;3.30;99.90;;;;;;10427473;28;20240;-79
2022/11/19 19:10:26;;;;;;;23.70;18.17;;;3.20;99.90;;;;;;10432978;28;20663;-79
2022/11/19 19:15:26;;;;;;;23.33;17.43;;;3.30;99.90;;;;;;10435356;28;20227;-79
2022/11/19 19:20:27;;;;;;;22.93;17.20;;;3.40;99.90;;;;;;10421121;28;20290;-79
2022/11/19 19:25:28;;;;;;;22.50;17.33;;;3.30;99.90;;;;;;10434377;28;20220;-79
2022/11/19 19:30:28;;;;;;;24.43;18.00;;;3.20;99.90;;;;;;10436061;28;20608;-79
2022/11/19 19:35:30;;;;;;;22.87;18.40;;;3.20;99.90;;;;;;10432808;28;20222;-79
2022/11/19 19:40:30;;;;;;;23.97;18.40;;;3.30;99.90;;;;;;10447549;28;20239;-78
2022/11/19 19:45:34;;;;;;;24.47;18.60;;;3.40;99.90;;;;;;10433065;28;20219;-80
2022/11/19 19:50:35;;;;;;;22.30;17.00;;;3.40;99.90;;;;;;10432386;28;20311;-79
2022/11/19 19:55:35;;;;;;;23.60;17.87;;;3.40;99.90;;;;;;10442142;28;20303;-76
2022/11/19 20:00:36;;;;;;;27.33;17.40;;;3.50;99.90;;;;;;10432804;28;20238;-77
2022/11/19 20:05:36;;;;;;;21.07;16.63;;;3.40;99.90;;;;;;10428009;28;20659;-78
2022/11/19 20:10:37;;;;;;;22.87;17.10;;;3.40;99.90;;;;;;10461259;28;20287;-78
2022/11/19 20:15:38;;;;;;;22.73;17.70;;;3.50;99.90;;;;;;10430694;28;20852;-78
2022/11/19 20:20:39;;;;;;;23.13;17.50;;;3.40;99.90;;;;;;10431593;28;20778;-79
2022/11/19 20:25:40;;;;;;;24.60;18.00;;;3.40;99.90;;;;;;10426573;28;20231;-76
2022/11/19 20:30:40;;;;;;;22.63;17.43;;;3.40;99.90;;;;;;10432701;28;20215;-77
2022/11/19 20:35:53;;;;;;;23.73;18.27;;;3.30;99.90;;;;;;10425970;28;20224;-80
2022/11/19 20:41:01;;;;;;;21.90;17.13;;;3.30;99.90;;;;;;10423184;28;20316;-78
2022/11/19 20:46:11;;;;;;;24.50;18.63;;;3.40;99.90;;;;;;10426189;28;20228;-80
2022/11/19 20:51:15;;;;;;;24.27;18.60;;;3.50;99.90;;;;;;10426369;28;20225;-78
2022/11/19 20:56:15;;;;;;;24.60;18.13;;;3.50;99.90;;;;;;10433584;28;20270;-76
2022/11/19 21:01:20;;;;;;;25.73;17.97;;;3.50;99.90;;;;;;10437309;28;20592;-78
2022/11/19 21:06:21;;;;;;;27.07;19.70;;;3.50;99.90;;;;;;10427551;28;20588;-70
2022/11/19 21:11:22;;;;;;;26.13;19.20;;;3.40;99.90;;;;;;10437153;28;20234;-70
2022/11/19 21:16:24;;;;;;;24.07;17.20;;;3.50;99.90;;;;;;10423533;28;20225;-70
2022/11/19 21:21:25;;;;;;;24.00;17.60;;;3.40;99.90;;;;;;10427693;28;20278;-70
2022/11/19 21:26:27;;;;;;;24.23;17.53;;;3.50;99.90;;;;;;10417566;28;20599;-71
2022/11/19 21:31:41;;;;;;;24.70;18.87;;;3.40;99.90;;;;;;10423044;28;20319;-77
2022/11/19 21:36:42;;;;;;;24.17;17.90;;;3.40;99.90;;;;;;10431393;28;20220;-77
2022/11/19 21:41:45;;;;;;;25.83;18.57;;;3.50;99.90;;;;;;10424242;28;20311;-81
2022/11/19 21:46:45;;;;;;;24.07;17.30;;;3.50;99.90;;;;;;10429937;28;20223;-79
2022/11/19 21:51:46;;;;;;;25.07;18.17;;;3.40;99.90;;;;;;10427029;28;20731;-78
2022/11/19 21:56:46;;;;;;;23.77;18.30;;;3.50;99.90;;;;;;10426825;28;20224;-79
2022/11/19 22:01:47;;;;;;;25.33;19.20;;;3.40;99.90;;;;;;10440076;28;20231;-79
2022/11/19 22:06:48;;;;;;;23.23;18.33;;;3.40;99.90;;;;;;10421156;28;20825;-79
2022/11/19 22:11:48;;;;;;;22.20;17.03;;;3.50;99.90;;;;;;10430008;28;20793;-79
2022/11/19 22:16:50;;;;;;;21.83;17.13;;;3.50;99.90;;;;;;10428350;28;20216;-78
2022/11/19 22:21:51;;;;;;;25.93;18.50;;;3.50;99.90;;;;;;10435984;28;20361;-77
2022/11/19 22:26:51;;;;;;;25.13;17.67;;;3.60;99.90;;;;;;10427453;28;20434;-79
2022/11/19 22:31:55;;;;;;;24.73;18.77;;;3.50;99.90;;;;;;10428939;28;20224;-82
2022/11/19 22:36:56;;;;;;;23.77;18.13;;;3.40;99.90;;;;;;10428870;28;20219;-78
2022/11/19 22:41:56;;;;;;;24.37;18.30;;;3.30;99.90;;;;;;10431324;28;20699;-79
2022/11/19 22:46:59;;;;;;;24.07;18.77;;;3.40;99.90;;;;;;10423567;28;20211;-79
2022/11/19 22:52:03;;;;;;;25.47;18.83;;;3.50;99.90;;;;;;10422011;28;20258;-79
2022/11/19 22:57:03;;;;;;;26.27;18.67;;;3.50;99.90;;;;;;10444943;28;20319;-77
2022/11/19 23:02:04;;;;;;;24.30;18.30;;;3.50;99.90;;;;;;10424206;28;20332;-79
2022/11/19 23:07:05;;;;;;;25.73;19.27;;;3.60;99.90;;;;;;10469830;28;20240;-78
2022/11/19 23:17:25;;;;;;;26.53;19.47;;;3.60;99.90;;;;;;10431351;28;20247;-77
2022/11/19 23:22:25;;;;;;;24.27;18.00;;;3.60;99.90;;;;;;10425703;28;20259;-78
2022/11/19 23:27:26;;;;;;;25.87;19.57;;;3.60;99.90;;;;;;10444890;28;20219;-78
2022/11/19 23:32:27;;;;;;;27.77;19.77;;;3.60;99.90;;;;;;10430690;28;20743;-80
2022/11/19 23:37:28;;;;;;;24.30;18.60;;;3.70;99.90;;;;;;10431543;28;20307;-79
2022/11/19 23:42:28;;;;;;;26.40;19.37;;;3.70;99.90;;;;;;10443643;28;20315;-76
2022/11/19 23:47:29;;;;;;;25.37;18.70;;;3.70;99.90;;;;;;10426862;28;20570;-78
2022/11/19 23:52:29;;;;;;;27.97;18.70;;;3.60;99.90;;;;;;10430042;28;20224;-78
2022/11/19 23:57:30;;;;;;;25.30;18.77;;;3.60;99.90;;;;;;10424992;28;20213;-79
